DFEIC EDDH-EDHL
Flight info
| Callsign | DFEIC |
|---|---|
| Flight time | 0h 21m |
| Altitude | 5000 |
| Route | LUGEG3G LUGEG |
| Aircraft | C208/L-SDFGR/C |
Departure
| Time | 2026-04-25 12:41 |
|---|---|
| Airport | Hamburg Helmut Schmidt Airport (EDDH) |
Arrival
| Time | 2026-04-25 13:02 |
|---|---|
| Airport | Lübeck Blankensee Airport (EDHL) |
| Time | Latitude | Longitude | Altitude | Speed | Heading |
|---|---|---|---|---|---|
| 2026-04-25 12:23 | 53.62630 | 9.98636 | 49 ft | 0 kts | 243° |
| 2026-04-25 12:36 | 53.62641 | 9.98617 | 49 ft | 10 kts | 348° |
| 2026-04-25 12:37 | 53.62697 | 9.98660 | 49 ft | 12 kts | 323° |
| 2026-04-25 12:37 | 53.62771 | 9.98712 | 49 ft | 17 kts | 50° |
| 2026-04-25 12:37 | 53.62858 | 9.98894 | 49 ft | 22 kts | 50° |
| 2026-04-25 12:37 | 53.62963 | 9.99105 | 49 ft | 24 kts | 50° |
| 2026-04-25 12:38 | 53.63049 | 9.99267 | 49 ft | 12 kts | 33° |
| 2026-04-25 12:38 | 53.63102 | 9.99300 | 49 ft | 3 kts | 12° |
| 2026-04-25 12:38 | 53.63125 | 9.99311 | 49 ft | 4 kts | 15° |
| 2026-04-25 12:38 | 53.63130 | 9.99313 | 49 ft | 0 kts | 14° |
| 2026-04-25 12:39 | 53.63192 | 9.99338 | 50 ft | 24 kts | 15° |
| 2026-04-25 12:40 | 53.63292 | 9.99372 | 50 ft | 6 kts | 351° |
| 2026-04-25 12:40 | 53.63298 | 9.99369 | 50 ft | 0 kts | 334° |
| 2026-04-25 12:40 | 53.63339 | 9.99335 | 50 ft | 35 kts | 336° |
| 2026-04-25 12:40 | 53.63728 | 9.99020 | 184 ft | 74 kts | 322° |
| 2026-04-25 12:41 | 53.64189 | 9.98592 | 567 ft | 74 kts | 323° |
| 2026-04-25 12:41 | 53.64647 | 9.98207 | 990 ft | 76 kts | 322° |
| 2026-04-25 12:41 | 53.65109 | 9.97802 | 1418 ft | 71 kts | 320° |
| 2026-04-25 12:41 | 53.65554 | 9.97411 | 1844 ft | 73 kts | 322° |
| 2026-04-25 12:42 | 53.66011 | 9.97023 | 2284 ft | 74 kts | 322° |
| 2026-04-25 12:42 | 53.66314 | 9.96759 | 2575 ft | 75 kts | 323° |
| 2026-04-25 12:42 | 53.66937 | 9.96223 | 3169 ft | 75 kts | 323° |
| 2026-04-25 12:42 | 53.67398 | 9.95831 | 3602 ft | 73 kts | 322° |
| 2026-04-25 12:43 | 53.67928 | 9.95892 | 4041 ft | 102 kts | 22° |
| 2026-04-25 12:43 | 53.68164 | 9.97175 | 4492 ft | 123 kts | 72° |
| 2026-04-25 12:43 | 53.68306 | 10.00216 | 5000 ft | 154 kts | 74° |
| 2026-04-25 12:44 | 53.68436 | 10.02151 | 4998 ft | 176 kts | 73° |
| 2026-04-25 12:44 | 53.68596 | 10.04263 | 5000 ft | 186 kts | 73° |
| 2026-04-25 12:44 | 53.68950 | 10.08692 | 5042 ft | 195 kts | 74° |
| 2026-04-25 12:45 | 53.69149 | 10.10983 | 5043 ft | 199 kts | 74° |
| 2026-04-25 12:45 | 53.69354 | 10.13302 | 5043 ft | 201 kts | 73° |
| 2026-04-25 12:45 | 53.69776 | 10.17991 | 5043 ft | 204 kts | 73° |
| 2026-04-25 12:46 | 53.69983 | 10.20369 | 5037 ft | 205 kts | 74° |
| 2026-04-25 12:46 | 53.70187 | 10.22752 | 5036 ft | 205 kts | 74° |
| 2026-04-25 12:46 | 53.70392 | 10.25129 | 5035 ft | 205 kts | 73° |
| 2026-04-25 12:46 | 53.70595 | 10.27512 | 5030 ft | 205 kts | 73° |
| 2026-04-25 12:47 | 53.70800 | 10.29895 | 5032 ft | 205 kts | 74° |
| 2026-04-25 12:47 | 53.71011 | 10.32269 | 5004 ft | 205 kts | 74° |
| 2026-04-25 12:47 | 53.71219 | 10.34648 | 5002 ft | 205 kts | 74° |
| 2026-04-25 12:47 | 53.71425 | 10.37028 | 5003 ft | 205 kts | 74° |
| 2026-04-25 12:48 | 53.71631 | 10.39403 | 5001 ft | 205 kts | 74° |
| 2026-04-25 12:48 | 53.71836 | 10.41783 | 4999 ft | 204 kts | 73° |
| 2026-04-25 12:48 | 53.72037 | 10.44155 | 4999 ft | 204 kts | 74° |
| 2026-04-25 12:48 | 53.72245 | 10.46529 | 5006 ft | 205 kts | 74° |
| 2026-04-25 12:49 | 53.72455 | 10.48907 | 4996 ft | 205 kts | 74° |
| 2026-04-25 12:49 | 53.72660 | 10.51259 | 4998 ft | 205 kts | 74° |
| 2026-04-25 12:49 | 53.72871 | 10.53673 | 4997 ft | 205 kts | 74° |
| 2026-04-25 12:49 | 53.73077 | 10.56057 | 4996 ft | 205 kts | 74° |
| 2026-04-25 12:50 | 53.73282 | 10.58439 | 4999 ft | 205 kts | 74° |
| 2026-04-25 12:50 | 53.73487 | 10.60812 | 4999 ft | 204 kts | 74° |
| 2026-04-25 12:50 | 53.73694 | 10.63176 | 4999 ft | 204 kts | 74° |
| 2026-04-25 12:50 | 53.73897 | 10.65517 | 5001 ft | 204 kts | 74° |
| 2026-04-25 12:51 | 53.74107 | 10.67925 | 4999 ft | 205 kts | 74° |
| 2026-04-25 12:51 | 53.74313 | 10.70277 | 5002 ft | 205 kts | 74° |
| 2026-04-25 12:51 | 53.74521 | 10.72662 | 4998 ft | 205 kts | 74° |
| 2026-04-25 12:51 | 53.74726 | 10.75046 | 5000 ft | 205 kts | 74° |
| 2026-04-25 12:52 | 53.74932 | 10.77429 | 5003 ft | 205 kts | 74° |
| 2026-04-25 12:52 | 53.75139 | 10.79820 | 4913 ft | 207 kts | 74° |
| 2026-04-25 12:52 | 53.75348 | 10.82233 | 4668 ft | 208 kts | 74° |
| 2026-04-25 12:52 | 53.75562 | 10.84641 | 4432 ft | 206 kts | 74° |
| 2026-04-25 12:53 | 53.75784 | 10.87027 | 4171 ft | 205 kts | 75° |
| 2026-04-25 12:53 | 53.76016 | 10.89391 | 3995 ft | 203 kts | 74° |
| 2026-04-25 12:53 | 53.76253 | 10.91740 | 3999 ft | 202 kts | 74° |
| 2026-04-25 12:53 | 53.76487 | 10.94085 | 4002 ft | 202 kts | 74° |
| 2026-04-25 12:54 | 53.76726 | 10.96423 | 3993 ft | 201 kts | 74° |
| 2026-04-25 12:54 | 53.76964 | 10.98753 | 3988 ft | 201 kts | 74° |
| 2026-04-25 12:54 | 53.77194 | 11.01092 | 3840 ft | 203 kts | 75° |
| 2026-04-25 12:54 | 53.77507 | 11.03390 | 3578 ft | 195 kts | 58° |
| 2026-04-25 12:55 | 53.78368 | 11.04991 | 3299 ft | 180 kts | 27° |
| 2026-04-25 12:55 | 53.79044 | 11.05774 | 3128 ft | 177 kts | 25° |
| 2026-04-25 12:55 | 53.80457 | 11.06992 | 2969 ft | 161 kts | 358° |
| 2026-04-25 12:55 | 53.81535 | 11.06881 | 2974 ft | 154 kts | 345° |
| 2026-04-25 12:56 | 53.82536 | 11.06446 | 2972 ft | 143 kts | 320° |
| 2026-04-25 12:56 | 53.83024 | 11.05059 | 2771 ft | 142 kts | 277° |
| 2026-04-25 12:56 | 53.82799 | 11.03436 | 2589 ft | 142 kts | 257° |
| 2026-04-25 12:56 | 53.82690 | 11.01814 | 2493 ft | 137 kts | 273° |
| 2026-04-25 12:57 | 53.82714 | 11.00214 | 2492 ft | 137 kts | 274° |
| 2026-04-25 12:57 | 53.82736 | 10.98602 | 2498 ft | 137 kts | 274° |
| 2026-04-25 12:57 | 53.82757 | 10.96988 | 2496 ft | 137 kts | 274° |
| 2026-04-25 12:57 | 53.82802 | 10.95378 | 2496 ft | 136 kts | 278° |
| 2026-04-25 12:58 | 53.82917 | 10.93801 | 2494 ft | 133 kts | 279° |
| 2026-04-25 12:58 | 53.83032 | 10.92259 | 2481 ft | 131 kts | 279° |
| 2026-04-25 12:58 | 53.83160 | 10.90679 | 2269 ft | 140 kts | 279° |
| 2026-04-25 12:58 | 53.83298 | 10.89027 | 1999 ft | 140 kts | 279° |
| 2026-04-25 12:59 | 53.83328 | 10.87392 | 1834 ft | 139 kts | 270° |
| 2026-04-25 12:59 | 53.83122 | 10.85784 | 1651 ft | 140 kts | 261° |
| 2026-04-25 12:59 | 53.82870 | 10.84249 | 1458 ft | 127 kts | 260° |
| 2026-04-25 12:59 | 53.82634 | 10.82936 | 1306 ft | 110 kts | 262° |
| 2026-04-25 13:00 | 53.82418 | 10.81752 | 1146 ft | 102 kts | 262° |
| 2026-04-25 13:00 | 53.82351 | 10.81392 | 1118 ft | 96 kts | 261° |
| 2026-04-25 13:00 | 53.82022 | 10.79842 | 896 ft | 83 kts | 256° |
| 2026-04-25 13:00 | 53.81819 | 10.78921 | 755 ft | 85 kts | 256° |
| 2026-04-25 13:01 | 53.81666 | 10.77968 | 635 ft | 82 kts | 260° |
| 2026-04-25 13:01 | 53.81503 | 10.77121 | 523 ft | 72 kts | 262° |
| 2026-04-25 13:01 | 53.81344 | 10.76287 | 534 ft | 73 kts | 256° |
| 2026-04-25 13:01 | 53.81195 | 10.75450 | 370 ft | 76 kts | 258° |
| 2026-04-25 13:02 | 53.81023 | 10.74566 | 236 ft | 72 kts | 262° |
| 2026-04-25 13:02 | 53.80868 | 10.73743 | 132 ft | 72 kts | 258° |
| 2026-04-25 13:02 | 53.80708 | 10.72871 | 70 ft | 77 kts | 258° |
| 2026-04-25 13:02 | 53.80581 | 10.72182 | 59 ft | 45 kts | 253° |
| 2026-04-25 13:03 | 53.80554 | 10.71962 | 55 ft | 14 kts | 333° |
| 2026-04-25 13:03 | 53.80605 | 10.71844 | 61 ft | 8 kts | 296° |
| 2026-04-25 13:03 | 53.80620 | 10.71791 | 61 ft | 3 kts | 293° |
| 2026-04-25 13:03 | 53.80626 | 10.71764 | 61 ft | 1 kts | 294° |
| 2026-04-25 13:04 | 53.80645 | 10.71689 | 60 ft | 20 kts | 291° |
| 2026-04-25 13:04 | 53.80645 | 10.71479 | 55 ft | 15 kts | 250° |
| 2026-04-25 13:04 | 53.80617 | 10.71322 | 57 ft | 15 kts | 255° |
| 2026-04-25 13:04 | 53.80582 | 10.71129 | 62 ft | 18 kts | 252° |
| 2026-04-25 13:05 | 53.80534 | 10.70898 | 58 ft | 22 kts | 252° |
| 2026-04-25 13:05 | 53.80493 | 10.70684 | 57 ft | 17 kts | 253° |
| 2026-04-25 13:05 | 53.80459 | 10.70508 | 55 ft | 14 kts | 255° |
| 2026-04-25 13:05 | 53.80480 | 10.70404 | 57 ft | 9 kts | 322° |
| 2026-04-25 13:06 | 53.80529 | 10.70345 | 57 ft | 8 kts | 326° |
| 2026-04-25 13:06 | 53.80588 | 10.70377 | 56 ft | 13 kts | 51° |
| 2026-04-25 13:06 | 53.80584 | 10.70460 | 56 ft | 9 kts | 135° |
| 2026-04-25 13:06 | 53.80566 | 10.70439 | 55 ft | 3 kts | 319° |
| 2026-04-25 13:07 | 53.80569 | 10.70435 | 57 ft | 0 kts | 320° |